Terminal Aerodrome Forecast
Issued by NWS

Home | Current Version | Previous Version | Text Only | Print | Product List | Glossary On
Versions: 1 2 3 4 5 6 7 8 9 10 11 12 13
000
FTUS45 KTFX 231736
TAFCTB
TAF
KCTB 231736Z 2318/2418 10012KT P6SM VCSH SCT060 BKN090
      TEMPO 2318/2320 -SHRA BKN040
     FM232000 09010KT P6SM VCSH SCT050 BKN080
      TEMPO 2320/2324 -TSRA BKN040CB
     FM240200 VRB05KT P6SM SCT060 BKN080
     FM240900 VRB05KT P6SM SCT070 BKN120=

USA.gov is the U.S. government's official web portal to all federal, state and local government web resources and services.